sensor_id;sensor_type;location;lat;lon;timestamp;P1;durP1;ratioP1;P2;durP2;ratioP2
12412;SDS011;13877;18.896;-99.222;2022-11-28T00:03:51;16.02;;;7.38;;
12412;SDS011;13877;18.896;-99.222;2022-11-28T00:06:17;20.98;;;7.15;;
12412;SDS011;13877;18.896;-99.222;2022-11-28T00:08:45;22.48;;;7.03;;
12412;SDS011;13877;18.896;-99.222;2022-11-28T00:11:12;10.80;;;5.97;;
12412;SDS011;13877;18.896;-99.222;2022-11-28T00:13:41;17.35;;;6.85;;
12412;SDS011;13877;18.896;-99.222;2022-11-28T00:16:08;14.68;;;7.18;;
12412;SDS011;13877;18.896;-99.222;2022-11-28T00:18:40;16.88;;;8.48;;
12412;SDS011;13877;18.896;-99.222;2022-11-28T00:21:08;12.85;;;6.90;;
12412;SDS011;13877;18.896;-99.222;2022-11-28T00:23:37;16.58;;;7.45;;
12412;SDS011;13877;18.896;-99.222;2022-11-28T00:26:06;16.23;;;6.63;;
12412;SDS011;13877;18.896;-99.222;2022-11-28T00:28:38;14.88;;;6.55;;
12412;SDS011;13877;18.896;-99.222;2022-11-28T00:31:05;11.57;;;6.63;;
12412;SDS011;13877;18.896;-99.222;2022-11-28T00:33:36;13.57;;;6.95;;
12412;SDS011;13877;18.896;-99.222;2022-11-28T00:36:03;19.15;;;6.82;;
12412;SDS011;13877;18.896;-99.222;2022-11-28T00:38:31;17.98;;;6.82;;
12412;SDS011;13877;18.896;-99.222;2022-11-28T00:40:58;14.57;;;5.47;;
12412;SDS011;13877;18.896;-99.222;2022-11-28T00:43:26;9.18;;;6.13;;
12412;SDS011;13877;18.896;-99.222;2022-11-28T00:45:53;27.52;;;7.68;;
12412;SDS011;13877;18.896;-99.222;2022-11-28T00:48:20;10.32;;;5.40;;
12412;SDS011;13877;18.896;-99.222;2022-11-28T00:50:47;11.27;;;5.55;;
12412;SDS011;13877;18.896;-99.222;2022-11-28T00:53:15;9.55;;;5.13;;
12412;SDS011;13877;18.896;-99.222;2022-11-28T00:55:42;11.55;;;5.90;;
12412;SDS011;13877;18.896;-99.222;2022-11-28T00:58:09;12.73;;;6.22;;
12412;SDS011;13877;18.896;-99.222;2022-11-28T01:00:36;9.93;;;5.80;;
12412;SDS011;13877;18.896;-99.222;2022-11-28T01:03:03;12.48;;;5.93;;
12412;SDS011;13877;18.896;-99.222;2022-11-28T01:05:30;15.02;;;6.32;;
12412;SDS011;13877;18.896;-99.222;2022-11-28T01:07:57;16.98;;;6.25;;
12412;SDS011;13877;18.896;-99.222;2022-11-28T01:10:23;12.90;;;6.20;;
12412;SDS011;13877;18.896;-99.222;2022-11-28T01:12:52;11.25;;;5.97;;
12412;SDS011;13877;18.896;-99.222;2022-11-28T01:15:18;10.55;;;5.70;;
12412;SDS011;13877;18.896;-99.222;2022-11-28T01:17:46;14.10;;;6.68;;
12412;SDS011;13877;18.896;-99.222;2022-11-28T01:20:12;21.88;;;5.95;;
12412;SDS011;13877;18.896;-99.222;2022-11-28T01:22:39;13.20;;;6.32;;
12412;SDS011;13877;18.896;-99.222;2022-11-28T01:25:06;12.27;;;6.05;;
12412;SDS011;13877;18.896;-99.222;2022-11-28T01:27:33;15.38;;;6.82;;
12412;SDS011;13877;18.896;-99.222;2022-11-28T01:30:00;12.60;;;6.13;;
12412;SDS011;13877;18.896;-99.222;2022-11-28T01:32:27;11.07;;;6.47;;
12412;SDS011;13877;18.896;-99.222;2022-11-28T01:34:53;15.85;;;6.07;;
12412;SDS011;13877;18.896;-99.222;2022-11-28T01:37:20;12.98;;;6.55;;
12412;SDS011;13877;18.896;-99.222;2022-11-28T01:39:47;11.32;;;6.13;;
12412;SDS011;13877;18.896;-99.222;2022-11-28T01:42:15;13.43;;;6.72;;
12412;SDS011;13877;18.896;-99.222;2022-11-28T01:47:24;13.75;;;6.85;;
12412;SDS011;13877;18.896;-99.222;2022-11-28T01:49:54;20.33;;;6.30;;
12412;SDS011;13877;18.896;-99.222;2022-11-28T01:52:21;12.65;;;6.50;;
12412;SDS011;13877;18.896;-99.222;2022-11-28T01:54:50;13.45;;;6.00;;
12412;SDS011;13877;18.896;-99.222;2022-11-28T01:57:21;17.25;;;6.65;;
12412;SDS011;13877;18.896;-99.222;2022-11-28T01:59:54;11.88;;;6.65;;
12412;SDS011;13877;18.896;-99.222;2022-11-28T02:02:43;11.68;;;5.57;;
12412;SDS011;13877;18.896;-99.222;2022-11-28T02:05:47;13.30;;;7.00;;
12412;SDS011;13877;18.896;-99.222;2022-11-28T02:08:17;19.02;;;6.45;;
12412;SDS011;13877;18.896;-99.222;2022-11-28T02:30:24;11.05;;;5.20;;
12412;SDS011;13877;18.896;-99.222;2022-11-28T02:44:13;11.93;;;6.35;;
12412;SDS011;13877;18.896;-99.222;2022-11-28T02:46:55;13.88;;;6.40;;
12412;SDS011;13877;18.896;-99.222;2022-11-28T02:50:27;15.13;;;6.53;;
12412;SDS011;13877;18.896;-99.222;2022-11-28T02:52:38;17.17;;;7.25;;
12412;SDS011;13877;18.896;-99.222;2022-11-28T02:55:11;13.52;;;7.35;;
12412;SDS011;13877;18.896;-99.222;2022-11-28T02:57:46;14.65;;;7.05;;
12412;SDS011;13877;18.896;-99.222;2022-11-28T03:00:21;12.70;;;7.05;;
12412;SDS011;13877;18.896;-99.222;2022-11-28T03:08:55;11.10;;;6.43;;
12412;SDS011;13877;18.896;-99.222;2022-11-28T03:11:35;16.27;;;6.90;;
12412;SDS011;13877;18.896;-99.222;2022-11-28T03:14:43;18.50;;;8.02;;
12412;SDS011;13877;18.896;-99.222;2022-11-28T03:23:10;13.90;;;7.55;;
12412;SDS011;13877;18.896;-99.222;2022-11-28T03:26:14;13.00;;;6.97;;
12412;SDS011;13877;18.896;-99.222;2022-11-28T03:28:42;13.35;;;7.30;;
12412;SDS011;13877;18.896;-99.222;2022-11-28T03:31:24;15.02;;;7.20;;
12412;SDS011;13877;18.896;-99.222;2022-11-28T03:33:59;14.52;;;7.38;;
12412;SDS011;13877;18.896;-99.222;2022-11-28T03:36:39;12.75;;;6.97;;
12412;SDS011;13877;18.896;-99.222;2022-11-28T03:39:15;20.00;;;8.82;;
12412;SDS011;13877;18.896;-99.222;2022-11-28T03:41:49;29.02;;;9.20;;
12412;SDS011;13877;18.896;-99.222;2022-11-28T03:44:39;20.55;;;8.98;;
12412;SDS011;13877;18.896;-99.222;2022-11-28T03:47:13;17.60;;;9.75;;
12412;SDS011;13877;18.896;-99.222;2022-11-28T03:49:41;20.80;;;9.65;;
12412;SDS011;13877;18.896;-99.222;2022-11-28T03:52:17;22.60;;;9.60;;
12412;SDS011;13877;18.896;-99.222;2022-11-28T03:54:54;29.77;;;9.10;;
12412;SDS011;13877;18.896;-99.222;2022-11-28T03:57:29;19.70;;;8.73;;
12412;SDS011;13877;18.896;-99.222;2022-11-28T04:00:09;19.02;;;8.73;;
12412;SDS011;13877;18.896;-99.222;2022-11-28T04:08:29;17.73;;;8.27;;
12412;SDS011;13877;18.896;-99.222;2022-11-28T04:11:06;19.55;;;7.88;;
12412;SDS011;13877;18.896;-99.222;2022-11-28T04:14:03;18.88;;;6.90;;
12412;SDS011;13877;18.896;-99.222;2022-11-28T04:17:01;12.38;;;8.02;;
12412;SDS011;13877;18.896;-99.222;2022-11-28T04:24:53;17.08;;;8.30;;
12412;SDS011;13877;18.896;-99.222;2022-11-28T04:27:30;20.45;;;7.57;;
12412;SDS011;13877;18.896;-99.222;2022-11-28T04:30:02;19.35;;;9.05;;
12412;SDS011;13877;18.896;-99.222;2022-11-28T04:32:31;22.40;;;8.90;;
12412;SDS011;13877;18.896;-99.222;2022-11-28T04:35:06;16.95;;;8.38;;
12412;SDS011;13877;18.896;-99.222;2022-11-28T04:37:38;28.10;;;8.82;;
12412;SDS011;13877;18.896;-99.222;2022-11-28T04:40:09;23.00;;;8.98;;
12412;SDS011;13877;18.896;-99.222;2022-11-28T04:42:48;23.50;;;8.80;;
12412;SDS011;13877;18.896;-99.222;2022-11-28T04:45:42;27.40;;;8.15;;
12412;SDS011;13877;18.896;-99.222;2022-11-28T04:48:15;24.85;;;8.10;;
12412;SDS011;13877;18.896;-99.222;2022-11-28T04:50:46;26.77;;;10.15;;
12412;SDS011;13877;18.896;-99.222;2022-11-28T04:53:17;22.05;;;8.05;;
12412;SDS011;13877;18.896;-99.222;2022-11-28T04:55:54;21.88;;;7.25;;
12412;SDS011;13877;18.896;-99.222;2022-11-28T04:58:31;17.25;;;8.68;;
12412;SDS011;13877;18.896;-99.222;2022-11-28T05:01:02;16.05;;;7.70;;
12412;SDS011;13877;18.896;-99.222;2022-11-28T05:03:31;19.23;;;8.13;;
12412;SDS011;13877;18.896;-99.222;2022-11-28T05:05:58;19.38;;;8.98;;
12412;SDS011;13877;18.896;-99.222;2022-11-28T05:08:27;29.35;;;8.18;;
12412;SDS011;13877;18.896;-99.222;2022-11-28T05:10:54;16.67;;;8.35;;
12412;SDS011;13877;18.896;-99.222;2022-11-28T05:13:21;17.40;;;8.65;;
12412;SDS011;13877;18.896;-99.222;2022-11-28T05:15:48;14.52;;;7.88;;
12412;SDS011;13877;18.896;-99.222;2022-11-28T05:18:14;18.33;;;8.07;;
12412;SDS011;13877;18.896;-99.222;2022-11-28T05:20:41;17.77;;;7.88;;
12412;SDS011;13877;18.896;-99.222;2022-11-28T05:23:08;19.08;;;7.82;;
12412;SDS011;13877;18.896;-99.222;2022-11-28T05:25:36;18.42;;;8.43;;
12412;SDS011;13877;18.896;-99.222;2022-11-28T05:28:05;16.08;;;7.90;;
12412;SDS011;13877;18.896;-99.222;2022-11-28T05:30:31;18.25;;;7.68;;
12412;SDS011;13877;18.896;-99.222;2022-11-28T05:32:58;14.63;;;7.53;;
12412;SDS011;13877;18.896;-99.222;2022-11-28T05:35:25;15.70;;;7.32;;
12412;SDS011;13877;18.896;-99.222;2022-11-28T05:37:52;15.52;;;7.70;;
12412;SDS011;13877;18.896;-99.222;2022-11-28T05:40:19;18.75;;;7.38;;
12412;SDS011;13877;18.896;-99.222;2022-11-28T05:42:46;21.27;;;6.82;;
12412;SDS011;13877;18.896;-99.222;2022-11-28T05:45:13;19.73;;;7.40;;
12412;SDS011;13877;18.896;-99.222;2022-11-28T05:47:40;17.80;;;7.57;;
12412;SDS011;13877;18.896;-99.222;2022-11-28T05:50:07;15.05;;;7.38;;
12412;SDS011;13877;18.896;-99.222;2022-11-28T05:52:34;16.67;;;6.90;;
12412;SDS011;13877;18.896;-99.222;2022-11-28T05:55:01;10.90;;;6.65;;
12412;SDS011;13877;18.896;-99.222;2022-11-28T05:57:30;12.02;;;6.53;;
12412;SDS011;13877;18.896;-99.222;2022-11-28T05:59:57;12.90;;;6.57;;
12412;SDS011;13877;18.896;-99.222;2022-11-28T06:02:24;19.77;;;7.15;;
12412;SDS011;13877;18.896;-99.222;2022-11-28T06:04:50;15.50;;;7.35;;
12412;SDS011;13877;18.896;-99.222;2022-11-28T06:07:18;22.88;;;8.20;;
12412;SDS011;13877;18.896;-99.222;2022-11-28T06:09:44;18.95;;;7.72;;
12412;SDS011;13877;18.896;-99.222;2022-11-28T06:12:11;17.67;;;7.85;;
12412;SDS011;13877;18.896;-99.222;2022-11-28T06:14:38;18.50;;;8.35;;
12412;SDS011;13877;18.896;-99.222;2022-11-28T06:17:05;17.35;;;7.78;;
12412;SDS011;13877;18.896;-99.222;2022-11-28T06:19:32;15.80;;;7.28;;
12412;SDS011;13877;18.896;-99.222;2022-11-28T06:21:59;14.05;;;7.22;;
12412;SDS011;13877;18.896;-99.222;2022-11-28T06:24:26;26.08;;;7.38;;
12412;SDS011;13877;18.896;-99.222;2022-11-28T06:26:53;16.05;;;7.15;;
12412;SDS011;13877;18.896;-99.222;2022-11-28T06:29:19;17.20;;;7.93;;
12412;SDS011;13877;18.896;-99.222;2022-11-28T06:31:47;12.63;;;7.28;;
12412;SDS011;13877;18.896;-99.222;2022-11-28T06:34:14;15.93;;;7.40;;
12412;SDS011;13877;18.896;-99.222;2022-11-28T06:36:41;18.27;;;8.15;;
12412;SDS011;13877;18.896;-99.222;2022-11-28T06:39:11;15.15;;;7.18;;
12412;SDS011;13877;18.896;-99.222;2022-11-28T06:41:40;18.23;;;8.10;;
12412;SDS011;13877;18.896;-99.222;2022-11-28T06:44:09;20.17;;;8.45;;
12412;SDS011;13877;18.896;-99.222;2022-11-28T06:46:39;23.75;;;9.00;;
12412;SDS011;13877;18.896;-99.222;2022-11-28T06:49:08;15.80;;;7.82;;
12412;SDS011;13877;18.896;-99.222;2022-11-28T06:51:38;13.35;;;7.30;;
12412;SDS011;13877;18.896;-99.222;2022-11-28T06:54:06;19.38;;;8.13;;
12412;SDS011;13877;18.896;-99.222;2022-11-28T06:56:34;18.40;;;7.10;;
12412;SDS011;13877;18.896;-99.222;2022-11-28T06:59:00;13.20;;;6.30;;
12412;SDS011;13877;18.896;-99.222;2022-11-28T07:01:29;17.65;;;6.88;;
12412;SDS011;13877;18.896;-99.222;2022-11-28T07:03:57;12.07;;;7.10;;
12412;SDS011;13877;18.896;-99.222;2022-11-28T07:06:24;17.17;;;6.45;;
12412;SDS011;13877;18.896;-99.222;2022-11-28T07:08:54;11.90;;;6.00;;
12412;SDS011;13877;18.896;-99.222;2022-11-28T07:11:23;10.63;;;6.05;;
12412;SDS011;13877;18.896;-99.222;2022-11-28T07:13:53;14.93;;;6.50;;
12412;SDS011;13877;18.896;-99.222;2022-11-28T07:16:22;17.35;;;5.95;;
12412;SDS011;13877;18.896;-99.222;2022-11-28T07:18:50;10.35;;;6.28;;
12412;SDS011;13877;18.896;-99.222;2022-11-28T07:21:18;11.82;;;6.88;;
12412;SDS011;13877;18.896;-99.222;2022-11-28T07:23:45;10.63;;;6.35;;
12412;SDS011;13877;18.896;-99.222;2022-11-28T07:26:13;13.57;;;6.35;;
12412;SDS011;13877;18.896;-99.222;2022-11-28T07:28:41;13.63;;;6.20;;
12412;SDS011;13877;18.896;-99.222;2022-11-28T07:31:10;9.88;;;6.45;;
12412;SDS011;13877;18.896;-99.222;2022-11-28T07:33:46;13.32;;;7.03;;
12412;SDS011;13877;18.896;-99.222;2022-11-28T07:36:15;13.88;;;6.90;;
12412;SDS011;13877;18.896;-99.222;2022-11-28T07:38:48;15.07;;;5.85;;
12412;SDS011;13877;18.896;-99.222;2022-11-28T07:41:16;17.88;;;6.75;;
12412;SDS011;13877;18.896;-99.222;2022-11-28T07:43:45;8.25;;;5.75;;
12412;SDS011;13877;18.896;-99.222;2022-11-28T07:46:16;12.23;;;6.35;;
12412;SDS011;13877;18.896;-99.222;2022-11-28T07:48:44;14.48;;;6.38;;
12412;SDS011;13877;18.896;-99.222;2022-11-28T07:51:17;12.23;;;6.38;;
12412;SDS011;13877;18.896;-99.222;2022-11-28T07:53:46;14.38;;;6.57;;
12412;SDS011;13877;18.896;-99.222;2022-11-28T07:56:14;13.82;;;6.13;;
12412;SDS011;13877;18.896;-99.222;2022-11-28T07:58:43;11.57;;;5.97;;
12412;SDS011;13877;18.896;-99.222;2022-11-28T08:03:46;12.98;;;6.20;;
12412;SDS011;13877;18.896;-99.222;2022-11-28T08:06:13;9.13;;;5.50;;
12412;SDS011;13877;18.896;-99.222;2022-11-28T08:08:42;10.68;;;6.22;;
12412;SDS011;13877;18.896;-99.222;2022-11-28T08:11:12;13.93;;;5.63;;
12412;SDS011;13877;18.896;-99.222;2022-11-28T08:13:40;13.10;;;6.70;;
12412;SDS011;13877;18.896;-99.222;2022-11-28T08:16:09;10.02;;;6.40;;
12412;SDS011;13877;18.896;-99.222;2022-11-28T08:21:13;17.17;;;6.75;;
12412;SDS011;13877;18.896;-99.222;2022-11-28T08:23:42;17.15;;;6.55;;
12412;SDS011;13877;18.896;-99.222;2022-11-28T08:26:13;8.90;;;6.00;;
12412;SDS011;13877;18.896;-99.222;2022-11-28T08:28:41;13.88;;;6.38;;
12412;SDS011;13877;18.896;-99.222;2022-11-28T08:31:18;10.20;;;5.97;;
12412;SDS011;13877;18.896;-99.222;2022-11-28T08:33:48;11.32;;;6.18;;
12412;SDS011;13877;18.896;-99.222;2022-11-28T08:36:16;9.75;;;5.95;;
12412;SDS011;13877;18.896;-99.222;2022-11-28T08:38:44;16.05;;;6.00;;
12412;SDS011;13877;18.896;-99.222;2022-11-28T08:41:12;13.40;;;6.40;;
12412;SDS011;13877;18.896;-99.222;2022-11-28T08:43:41;12.90;;;6.63;;
12412;SDS011;13877;18.896;-99.222;2022-11-28T08:46:09;12.40;;;6.53;;
12412;SDS011;13877;18.896;-99.222;2022-11-28T08:48:45;10.52;;;6.18;;
12412;SDS011;13877;18.896;-99.222;2022-11-28T08:51:14;14.68;;;7.30;;
12412;SDS011;13877;18.896;-99.222;2022-11-28T08:53:43;10.43;;;6.38;;
12412;SDS011;13877;18.896;-99.222;2022-11-28T08:56:10;11.32;;;6.22;;
12412;SDS011;13877;18.896;-99.222;2022-11-28T08:58:38;13.30;;;6.85;;
12412;SDS011;13877;18.896;-99.222;2022-11-28T09:01:13;11.77;;;6.40;;
12412;SDS011;13877;18.896;-99.222;2022-11-28T09:03:44;14.00;;;6.68;;
12412;SDS011;13877;18.896;-99.222;2022-11-28T09:06:12;12.02;;;6.38;;
12412;SDS011;13877;18.896;-99.222;2022-11-28T09:08:40;11.82;;;6.38;;
12412;SDS011;13877;18.896;-99.222;2022-11-28T09:11:08;11.32;;;5.82;;
12412;SDS011;13877;18.896;-99.222;2022-11-28T09:13:36;12.52;;;5.97;;
12412;SDS011;13877;18.896;-99.222;2022-11-28T09:16:04;13.52;;;6.20;;
12412;SDS011;13877;18.896;-99.222;2022-11-28T09:18:31;12.93;;;6.95;;
12412;SDS011;13877;18.896;-99.222;2022-11-28T09:20:59;11.60;;;6.05;;
12412;SDS011;13877;18.896;-99.222;2022-11-28T09:23:27;17.05;;;6.78;;
12412;SDS011;13877;18.896;-99.222;2022-11-28T09:25:54;11.00;;;6.13;;
12412;SDS011;13877;18.896;-99.222;2022-11-28T09:28:22;11.32;;;6.32;;
12412;SDS011;13877;18.896;-99.222;2022-11-28T09:30:49;14.85;;;6.43;;
12412;SDS011;13877;18.896;-99.222;2022-11-28T09:33:24;10.13;;;5.95;;
12412;SDS011;13877;18.896;-99.222;2022-11-28T09:35:51;12.25;;;6.75;;
12412;SDS011;13877;18.896;-99.222;2022-11-28T09:38:20;11.13;;;6.32;;
12412;SDS011;13877;18.896;-99.222;2022-11-28T09:40:47;11.27;;;6.25;;
12412;SDS011;13877;18.896;-99.222;2022-11-28T09:43:31;10.98;;;6.07;;
12412;SDS011;13877;18.896;-99.222;2022-11-28T09:46:11;13.68;;;6.45;;
12412;SDS011;13877;18.896;-99.222;2022-11-28T09:48:45;13.73;;;6.57;;
12412;SDS011;13877;18.896;-99.222;2022-11-28T09:51:20;12.93;;;6.07;;
12412;SDS011;13877;18.896;-99.222;2022-11-28T09:56:44;17.85;;;6.30;;
12412;SDS011;13877;18.896;-99.222;2022-11-28T09:59:27;11.77;;;5.67;;
12412;SDS011;13877;18.896;-99.222;2022-11-28T10:20:41;9.70;;;5.70;;
12412;SDS011;13877;18.896;-99.222;2022-11-28T10:25:56;10.23;;;5.55;;
12412;SDS011;13877;18.896;-99.222;2022-11-28T10:34:10;14.18;;;7.45;;
12412;SDS011;13877;18.896;-99.222;2022-11-28T10:39:27;17.88;;;8.05;;
12412;SDS011;13877;18.896;-99.222;2022-11-28T10:50:38;10.15;;;4.55;;
12412;SDS011;13877;18.896;-99.222;2022-11-28T10:53:06;9.18;;;3.70;;
12412;SDS011;13877;18.896;-99.222;2022-11-28T10:58:45;10.98;;;4.38;;
12412;SDS011;13877;18.896;-99.222;2022-11-28T11:01:36;10.82;;;4.88;;
12412;SDS011;13877;18.896;-99.222;2022-11-28T11:04:04;8.27;;;4.20;;
12412;SDS011;13877;18.896;-99.222;2022-11-28T11:06:39;10.30;;;4.72;;
12412;SDS011;13877;18.896;-99.222;2022-11-28T11:09:06;13.13;;;4.40;;
12412;SDS011;13877;18.896;-99.222;2022-11-28T11:11:36;10.93;;;4.82;;
12412;SDS011;13877;18.896;-99.222;2022-11-28T11:14:11;9.27;;;4.75;;
12412;SDS011;13877;18.896;-99.222;2022-11-28T11:22:06;10.00;;;3.95;;
12412;SDS011;13877;18.896;-99.222;2022-11-28T11:24:44;13.48;;;4.93;;
12412;SDS011;13877;18.896;-99.222;2022-11-28T11:27:31;10.40;;;4.60;;
12412;SDS011;13877;18.896;-99.222;2022-11-28T11:29:59;9.23;;;4.20;;
12412;SDS011;13877;18.896;-99.222;2022-11-28T11:32:40;10.10;;;5.27;;
12412;SDS011;13877;18.896;-99.222;2022-11-28T11:35:15;12.40;;;5.57;;
12412;SDS011;13877;18.896;-99.222;2022-11-28T11:37:48;12.70;;;4.97;;
12412;SDS011;13877;18.896;-99.222;2022-11-28T11:42:56;10.18;;;4.80;;
12412;SDS011;13877;18.896;-99.222;2022-11-28T11:45:31;9.88;;;4.63;;
12412;SDS011;13877;18.896;-99.222;2022-11-28T11:48:00;11.55;;;5.60;;
12412;SDS011;13877;18.896;-99.222;2022-11-28T11:50:29;14.50;;;5.65;;
12412;SDS011;13877;18.896;-99.222;2022-11-28T11:55:39;14.20;;;5.72;;
12412;SDS011;13877;18.896;-99.222;2022-11-28T11:58:13;12.50;;;5.60;;
12412;SDS011;13877;18.896;-99.222;2022-11-28T12:00:47;22.92;;;8.77;;
12412;SDS011;13877;18.896;-99.222;2022-11-28T12:06:26;18.23;;;7.40;;
12412;SDS011;13877;18.896;-99.222;2022-11-28T12:11:40;16.00;;;6.90;;
12412;SDS011;13877;18.896;-99.222;2022-11-28T12:40:06;9.18;;;4.60;;
12412;SDS011;13877;18.896;-99.222;2022-11-28T12:42:51;11.55;;;5.38;;
12412;SDS011;13877;18.896;-99.222;2022-11-28T12:48:19;11.25;;;5.68;;
12412;SDS011;13877;18.896;-99.222;2022-11-28T12:53:58;11.18;;;5.57;;
12412;SDS011;13877;18.896;-99.222;2022-11-28T12:59:19;13.63;;;5.95;;
12412;SDS011;13877;18.896;-99.222;2022-11-28T13:16:05;15.50;;;5.55;;
12412;SDS011;13877;18.896;-99.222;2022-11-28T13:18:43;18.42;;;5.95;;
12412;SDS011;13877;18.896;-99.222;2022-11-28T13:21:35;11.48;;;5.80;;
12412;SDS011;13877;18.896;-99.222;2022-11-28T13:24:15;13.45;;;5.68;;
12412;SDS011;13877;18.896;-99.222;2022-11-28T13:27:17;15.70;;;6.15;;
12412;SDS011;13877;18.896;-99.222;2022-11-28T13:30:02;15.23;;;6.75;;
12412;SDS011;13877;18.896;-99.222;2022-11-28T13:35:29;25.50;;;6.68;;
12412;SDS011;13877;18.896;-99.222;2022-11-28T13:38:05;14.63;;;6.18;;
12412;SDS011;13877;18.896;-99.222;2022-11-28T13:45:49;13.95;;;5.63;;
12412;SDS011;13877;18.896;-99.222;2022-11-28T13:53:42;24.63;;;6.30;;
12412;SDS011;13877;18.896;-99.222;2022-11-28T13:56:21;23.17;;;6.90;;
12412;SDS011;13877;18.896;-99.222;2022-11-28T13:58:57;10.23;;;6.32;;
12412;SDS011;13877;18.896;-99.222;2022-11-28T14:01:41;11.05;;;5.55;;
12412;SDS011;13877;18.896;-99.222;2022-11-28T14:04:14;16.13;;;6.20;;
12412;SDS011;13877;18.896;-99.222;2022-11-28T14:06:53;21.60;;;7.15;;
12412;SDS011;13877;18.896;-99.222;2022-11-28T14:09:33;22.88;;;7.07;;
12412;SDS011;13877;18.896;-99.222;2022-11-28T14:12:17;19.38;;;5.93;;
12412;SDS011;13877;18.896;-99.222;2022-11-28T14:15:31;18.20;;;6.88;;
12412;SDS011;13877;18.896;-99.222;2022-11-28T14:26:56;16.42;;;5.57;;
12412;SDS011;13877;18.896;-99.222;2022-11-28T14:29:34;19.58;;;5.85;;
12412;SDS011;13877;18.896;-99.222;2022-11-28T14:32:06;15.30;;;5.43;;
12412;SDS011;13877;18.896;-99.222;2022-11-28T14:34:47;8.73;;;4.40;;
12412;SDS011;13877;18.896;-99.222;2022-11-28T14:39:55;8.25;;;3.75;;
12412;SDS011;13877;18.896;-99.222;2022-11-28T14:44:56;17.10;;;5.30;;
12412;SDS011;13877;18.896;-99.222;2022-11-28T14:52:33;21.38;;;5.72;;
12412;SDS011;13877;18.896;-99.222;2022-11-28T15:05:37;9.20;;;4.10;;
12412;SDS011;13877;18.896;-99.222;2022-11-28T15:08:19;5.82;;;3.13;;
12412;SDS011;13877;18.896;-99.222;2022-11-28T15:16:27;16.25;;;4.50;;
12412;SDS011;13877;18.896;-99.222;2022-11-28T15:18:57;21.83;;;5.13;;
12412;SDS011;13877;18.896;-99.222;2022-11-28T15:21:31;9.82;;;4.28;;
12412;SDS011;13877;18.896;-99.222;2022-11-28T15:24:20;15.32;;;4.72;;
12412;SDS011;13877;18.896;-99.222;2022-11-28T15:26:55;23.52;;;4.65;;
12412;SDS011;13877;18.896;-99.222;2022-11-28T15:29:41;18.90;;;5.85;;
12412;SDS011;13877;18.896;-99.222;2022-11-28T15:32:18;11.18;;;5.00;;
12412;SDS011;13877;18.896;-99.222;2022-11-28T15:34:49;10.75;;;5.45;;
12412;SDS011;13877;18.896;-99.222;2022-11-28T15:37:28;10.90;;;5.55;;
12412;SDS011;13877;18.896;-99.222;2022-11-28T15:39:57;12.00;;;5.70;;
12412;SDS011;13877;18.896;-99.222;2022-11-28T15:42:31;29.60;;;5.30;;
12412;SDS011;13877;18.896;-99.222;2022-11-28T15:47:53;11.60;;;4.78;;
12412;SDS011;13877;18.896;-99.222;2022-11-28T15:50:22;11.77;;;4.70;;
12412;SDS011;13877;18.896;-99.222;2022-11-28T15:55:23;13.48;;;5.25;;
12412;SDS011;13877;18.896;-99.222;2022-11-28T15:58:08;13.05;;;5.03;;
12412;SDS011;13877;18.896;-99.222;2022-11-28T16:00:40;8.18;;;5.35;;
12412;SDS011;13877;18.896;-99.222;2022-11-28T16:03:13;12.77;;;5.78;;
12412;SDS011;13877;18.896;-99.222;2022-11-28T16:05:44;12.32;;;4.40;;
12412;SDS011;13877;18.896;-99.222;2022-11-28T16:08:27;6.85;;;4.15;;
12412;SDS011;13877;18.896;-99.222;2022-11-28T16:11:07;25.48;;;4.43;;
12412;SDS011;13877;18.896;-99.222;2022-11-28T16:13:36;10.65;;;3.95;;
12412;SDS011;13877;18.896;-99.222;2022-11-28T16:16:07;12.15;;;4.60;;
12412;SDS011;13877;18.896;-99.222;2022-11-28T16:18:44;9.27;;;4.18;;
12412;SDS011;13877;18.896;-99.222;2022-11-28T16:21:18;11.88;;;4.22;;
12412;SDS011;13877;18.896;-99.222;2022-11-28T16:23:48;8.40;;;4.03;;
12412;SDS011;13877;18.896;-99.222;2022-11-28T16:26:20;6.32;;;3.53;;
12412;SDS011;13877;18.896;-99.222;2022-11-28T16:31:35;8.02;;;3.90;;
12412;SDS011;13877;18.896;-99.222;2022-11-28T16:34:02;9.50;;;3.80;;
12412;SDS011;13877;18.896;-99.222;2022-11-28T16:36:30;10.38;;;4.38;;
12412;SDS011;13877;18.896;-99.222;2022-11-28T16:39:04;10.27;;;4.00;;
12412;SDS011;13877;18.896;-99.222;2022-11-28T16:41:51;8.63;;;4.40;;
12412;SDS011;13877;18.896;-99.222;2022-11-28T16:44:39;7.13;;;3.97;;
12412;SDS011;13877;18.896;-99.222;2022-11-28T16:47:17;11.75;;;4.05;;
12412;SDS011;13877;18.896;-99.222;2022-11-28T16:52:45;7.57;;;4.13;;
12412;SDS011;13877;18.896;-99.222;2022-11-28T16:58:09;13.57;;;5.20;;
12412;SDS011;13877;18.896;-99.222;2022-11-28T17:00:39;9.50;;;4.53;;
12412;SDS011;13877;18.896;-99.222;2022-11-28T17:06:19;12.43;;;4.32;;
12412;SDS011;13877;18.896;-99.222;2022-11-28T17:09:03;9.68;;;4.43;;
12412;SDS011;13877;18.896;-99.222;2022-11-28T17:11:35;19.02;;;5.13;;
12412;SDS011;13877;18.896;-99.222;2022-11-28T17:16:33;24.90;;;4.35;;
12412;SDS011;13877;18.896;-99.222;2022-11-28T17:19:01;9.50;;;4.07;;
12412;SDS011;13877;18.896;-99.222;2022-11-28T17:21:45;15.60;;;6.00;;
12412;SDS011;13877;18.896;-99.222;2022-11-28T17:24:20;15.77;;;5.65;;
12412;SDS011;13877;18.896;-99.222;2022-11-28T17:26:49;23.20;;;7.47;;
12412;SDS011;13877;18.896;-99.222;2022-11-28T17:29:17;13.10;;;5.97;;
12412;SDS011;13877;18.896;-99.222;2022-11-28T17:31:44;15.35;;;6.15;;
12412;SDS011;13877;18.896;-99.222;2022-11-28T17:34:12;19.38;;;5.20;;
12412;SDS011;13877;18.896;-99.222;2022-11-28T17:36:45;15.00;;;5.50;;
12412;SDS011;13877;18.896;-99.222;2022-11-28T17:39:13;10.88;;;4.88;;
12412;SDS011;13877;18.896;-99.222;2022-11-28T17:41:40;17.52;;;6.60;;
12412;SDS011;13877;18.896;-99.222;2022-11-28T17:44:12;12.20;;;5.95;;
12412;SDS011;13877;18.896;-99.222;2022-11-28T17:46:44;13.02;;;5.40;;
12412;SDS011;13877;18.896;-99.222;2022-11-28T17:49:12;8.18;;;4.85;;
12412;SDS011;13877;18.896;-99.222;2022-11-28T17:51:39;18.67;;;5.65;;
12412;SDS011;13877;18.896;-99.222;2022-11-28T17:54:06;8.02;;;4.25;;
12412;SDS011;13877;18.896;-99.222;2022-11-28T17:56:35;10.68;;;4.97;;
12412;SDS011;13877;18.896;-99.222;2022-11-28T17:59:02;12.57;;;5.65;;
12412;SDS011;13877;18.896;-99.222;2022-11-28T18:01:29;10.35;;;5.45;;
12412;SDS011;13877;18.896;-99.222;2022-11-28T18:03:57;10.93;;;4.50;;
12412;SDS011;13877;18.896;-99.222;2022-11-28T18:06:24;13.35;;;5.22;;
12412;SDS011;13877;18.896;-99.222;2022-11-28T18:08:52;8.30;;;4.47;;
12412;SDS011;13877;18.896;-99.222;2022-11-28T18:11:19;7.68;;;4.45;;
12412;SDS011;13877;18.896;-99.222;2022-11-28T18:13:47;10.93;;;5.15;;
12412;SDS011;13877;18.896;-99.222;2022-11-28T18:16:14;11.50;;;5.00;;
12412;SDS011;13877;18.896;-99.222;2022-11-28T18:18:44;12.27;;;5.57;;
12412;SDS011;13877;18.896;-99.222;2022-11-28T18:21:11;9.55;;;5.20;;
12412;SDS011;13877;18.896;-99.222;2022-11-28T18:23:41;10.20;;;4.60;;
12412;SDS011;13877;18.896;-99.222;2022-11-28T18:26:15;10.52;;;5.80;;
12412;SDS011;13877;18.896;-99.222;2022-11-28T18:31:13;12.43;;;4.88;;
12412;SDS011;13877;18.896;-99.222;2022-11-28T18:36:11;12.77;;;4.88;;
12412;SDS011;13877;18.896;-99.222;2022-11-28T18:38:41;8.00;;;4.33;;
12412;SDS011;13877;18.896;-99.222;2022-11-28T18:41:11;11.52;;;4.80;;
12412;SDS011;13877;18.896;-99.222;2022-11-28T18:43:40;15.85;;;4.80;;
12412;SDS011;13877;18.896;-99.222;2022-11-28T18:46:09;9.63;;;3.95;;